sensor_id;sensor_type;location;lat;lon;timestamp;P1;durP1;ratioP1;P2;durP2;ratioP2
7410;SDS011;3747;48.628;9.058;2023-05-10T00:02:17;1.87;;;1.40;;
7410;SDS011;3747;48.628;9.058;2023-05-10T00:04:43;1.20;;;1.10;;
7410;SDS011;3747;48.628;9.058;2023-05-10T00:07:10;0.90;;;0.90;;
7410;SDS011;3747;48.628;9.058;2023-05-10T00:09:36;1.10;;;1.00;;
7410;SDS011;3747;48.628;9.058;2023-05-10T00:12:05;1.00;;;1.00;;
7410;SDS011;3747;48.628;9.058;2023-05-10T00:14:32;0.93;;;0.93;;
7410;SDS011;3747;48.628;9.058;2023-05-10T00:16:58;1.97;;;0.70;;
7410;SDS011;3747;48.628;9.058;2023-05-10T00:19:25;1.67;;;1.10;;
7410;SDS011;3747;48.628;9.058;2023-05-10T00:21:52;0.87;;;0.60;;
7410;SDS011;3747;48.628;9.058;2023-05-10T00:24:18;1.30;;;0.60;;
7410;SDS011;3747;48.628;9.058;2023-05-10T00:26:45;0.40;;;0.40;;
7410;SDS011;3747;48.628;9.058;2023-05-10T00:29:13;0.43;;;0.30;;
7410;SDS011;3747;48.628;9.058;2023-05-10T00:31:40;0.30;;;0.23;;
7410;SDS011;3747;48.628;9.058;2023-05-10T00:34:07;0.30;;;0.30;;
7410;SDS011;3747;48.628;9.058;2023-05-10T00:36:33;0.80;;;0.27;;
7410;SDS011;3747;48.628;9.058;2023-05-10T00:39:00;0.53;;;0.40;;
7410;SDS011;3747;48.628;9.058;2023-05-10T00:41:28;0.67;;;0.20;;
7410;SDS011;3747;48.628;9.058;2023-05-10T00:43:56;0.20;;;0.20;;
7410;SDS011;3747;48.628;9.058;2023-05-10T00:46:24;1.03;;;0.37;;
7410;SDS011;3747;48.628;9.058;2023-05-10T00:48:53;0.33;;;0.30;;
7410;SDS011;3747;48.628;9.058;2023-05-10T00:51:20;0.33;;;0.30;;
7410;SDS011;3747;48.628;9.058;2023-05-10T00:53:46;0.47;;;0.30;;
7410;SDS011;3747;48.628;9.058;2023-05-10T00:56:16;0.50;;;0.30;;
7410;SDS011;3747;48.628;9.058;2023-05-10T00:58:42;1.03;;;0.20;;
7410;SDS011;3747;48.628;9.058;2023-05-10T01:01:09;0.87;;;0.57;;
7410;SDS011;3747;48.628;9.058;2023-05-10T01:03:39;0.30;;;0.30;;
7410;SDS011;3747;48.628;9.058;2023-05-10T01:06:06;0.40;;;0.37;;
7410;SDS011;3747;48.628;9.058;2023-05-10T01:08:34;0.67;;;0.30;;
7410;SDS011;3747;48.628;9.058;2023-05-10T01:11:01;0.20;;;0.20;;
7410;SDS011;3747;48.628;9.058;2023-05-10T01:13:30;1.10;;;0.17;;
7410;SDS011;3747;48.628;9.058;2023-05-10T01:15:59;0.47;;;0.20;;
7410;SDS011;3747;48.628;9.058;2023-05-10T01:18:27;1.03;;;0.30;;
7410;SDS011;3747;48.628;9.058;2023-05-10T01:21:01;0.63;;;0.13;;
7410;SDS011;3747;48.628;9.058;2023-05-10T01:23:42;1.47;;;0.30;;
7410;SDS011;3747;48.628;9.058;2023-05-10T01:26:29;0.10;;;0.10;;
7410;SDS011;3747;48.628;9.058;2023-05-10T01:29:18;0.40;;;0.20;;
7410;SDS011;3747;48.628;9.058;2023-05-10T01:32:08;0.30;;;0.27;;
7410;SDS011;3747;48.628;9.058;2023-05-10T01:34:53;0.20;;;0.20;;
7410;SDS011;3747;48.628;9.058;2023-05-10T01:37:26;0.10;;;0.10;;
7410;SDS011;3747;48.628;9.058;2023-05-10T01:40:00;0.17;;;0.10;;
7410;SDS011;3747;48.628;9.058;2023-05-10T01:42:36;0.10;;;0.10;;
7410;SDS011;3747;48.628;9.058;2023-05-10T01:45:11;1.30;;;0.17;;
7410;SDS011;3747;48.628;9.058;2023-05-10T01:47:45;0.17;;;0.17;;
7410;SDS011;3747;48.628;9.058;2023-05-10T01:50:17;0.30;;;0.30;;
7410;SDS011;3747;48.628;9.058;2023-05-10T01:52:49;0.10;;;0.10;;
7410;SDS011;3747;48.628;9.058;2023-05-10T01:55:20;2.13;;;0.63;;
7410;SDS011;3747;48.628;9.058;2023-05-10T01:57:50;1.03;;;0.30;;
7410;SDS011;3747;48.628;9.058;2023-05-10T02:00:22;0.30;;;0.30;;
7410;SDS011;3747;48.628;9.058;2023-05-10T02:02:51;0.20;;;0.20;;
7410;SDS011;3747;48.628;9.058;2023-05-10T02:05:18;0.77;;;0.30;;
7410;SDS011;3747;48.628;9.058;2023-05-10T02:07:46;0.20;;;0.20;;
7410;SDS011;3747;48.628;9.058;2023-05-10T02:10:15;2.30;;;0.40;;
7410;SDS011;3747;48.628;9.058;2023-05-10T02:12:43;0.20;;;0.13;;
7410;SDS011;3747;48.628;9.058;2023-05-10T02:15:12;1.07;;;0.40;;
7410;SDS011;3747;48.628;9.058;2023-05-10T02:17:41;0.27;;;0.27;;
7410;SDS011;3747;48.628;9.058;2023-05-10T02:20:10;1.90;;;0.30;;
7410;SDS011;3747;48.628;9.058;2023-05-10T02:22:38;0.40;;;0.40;;
7410;SDS011;3747;48.628;9.058;2023-05-10T02:25:06;1.10;;;0.50;;
7410;SDS011;3747;48.628;9.058;2023-05-10T02:27:34;0.40;;;0.40;;
7410;SDS011;3747;48.628;9.058;2023-05-10T02:30:03;3.30;;;0.60;;
7410;SDS011;3747;48.628;9.058;2023-05-10T02:32:32;1.20;;;0.40;;
7410;SDS011;3747;48.628;9.058;2023-05-10T02:35:00;0.43;;;0.43;;
7410;SDS011;3747;48.628;9.058;2023-05-10T02:37:30;0.50;;;0.50;;
7410;SDS011;3747;48.628;9.058;2023-05-10T02:39:57;0.40;;;0.40;;
7410;SDS011;3747;48.628;9.058;2023-05-10T02:42:25;0.70;;;0.50;;
7410;SDS011;3747;48.628;9.058;2023-05-10T02:44:54;1.23;;;0.50;;
7410;SDS011;3747;48.628;9.058;2023-05-10T02:47:22;0.37;;;0.37;;
7410;SDS011;3747;48.628;9.058;2023-05-10T02:49:49;3.20;;;0.43;;
7410;SDS011;3747;48.628;9.058;2023-05-10T02:52:19;1.07;;;0.70;;
7410;SDS011;3747;48.628;9.058;2023-05-10T02:54:51;1.40;;;1.30;;
7410;SDS011;3747;48.628;9.058;2023-05-10T02:57:22;1.33;;;0.60;;
7410;SDS011;3747;48.628;9.058;2023-05-10T02:59:52;4.47;;;0.87;;
7410;SDS011;3747;48.628;9.058;2023-05-10T03:02:20;1.07;;;0.90;;
7410;SDS011;3747;48.628;9.058;2023-05-10T03:04:47;0.80;;;0.60;;
7410;SDS011;3747;48.628;9.058;2023-05-10T03:07:13;0.80;;;0.73;;
7410;SDS011;3747;48.628;9.058;2023-05-10T03:09:41;0.83;;;0.83;;
7410;SDS011;3747;48.628;9.058;2023-05-10T03:12:11;0.70;;;0.70;;
7410;SDS011;3747;48.628;9.058;2023-05-10T03:14:44;2.10;;;0.83;;
7410;SDS011;3747;48.628;9.058;2023-05-10T03:17:16;1.00;;;0.63;;
7410;SDS011;3747;48.628;9.058;2023-05-10T03:19:51;0.50;;;0.50;;
7410;SDS011;3747;48.628;9.058;2023-05-10T03:22:21;1.50;;;0.70;;
7410;SDS011;3747;48.628;9.058;2023-05-10T03:24:51;0.80;;;0.80;;
7410;SDS011;3747;48.628;9.058;2023-05-10T03:27:23;3.00;;;2.70;;
7410;SDS011;3747;48.628;9.058;2023-05-10T03:29:52;4.17;;;2.73;;
7410;SDS011;3747;48.628;9.058;2023-05-10T03:32:21;0.57;;;0.57;;
7410;SDS011;3747;48.628;9.058;2023-05-10T03:34:48;0.70;;;0.70;;
7410;SDS011;3747;48.628;9.058;2023-05-10T03:37:15;0.80;;;0.77;;
7410;SDS011;3747;48.628;9.058;2023-05-10T03:39:41;1.40;;;0.60;;
7410;SDS011;3747;48.628;9.058;2023-05-10T03:42:08;1.97;;;1.00;;
7410;SDS011;3747;48.628;9.058;2023-05-10T03:44:38;1.17;;;1.07;;
7410;SDS011;3747;48.628;9.058;2023-05-10T03:47:04;1.50;;;0.97;;
7410;SDS011;3747;48.628;9.058;2023-05-10T03:49:31;1.43;;;0.83;;
7410;SDS011;3747;48.628;9.058;2023-05-10T03:51:58;1.00;;;0.80;;
7410;SDS011;3747;48.628;9.058;2023-05-10T03:54:24;2.77;;;1.30;;
7410;SDS011;3747;48.628;9.058;2023-05-10T03:56:51;3.17;;;0.93;;
7410;SDS011;3747;48.628;9.058;2023-05-10T03:59:18;2.00;;;0.97;;
7410;SDS011;3747;48.628;9.058;2023-05-10T04:01:46;1.13;;;0.90;;
7410;SDS011;3747;48.628;9.058;2023-05-10T04:04:13;0.83;;;0.80;;
7410;SDS011;3747;48.628;9.058;2023-05-10T04:06:39;0.80;;;0.80;;
7410;SDS011;3747;48.628;9.058;2023-05-10T04:09:06;3.27;;;0.80;;
7410;SDS011;3747;48.628;9.058;2023-05-10T04:11:33;1.10;;;1.00;;
7410;SDS011;3747;48.628;9.058;2023-05-10T04:14:00;1.00;;;0.90;;
7410;SDS011;3747;48.628;9.058;2023-05-10T04:16:26;1.37;;;0.93;;
7410;SDS011;3747;48.628;9.058;2023-05-10T04:18:54;1.10;;;1.00;;
7410;SDS011;3747;48.628;9.058;2023-05-10T04:21:21;2.37;;;2.17;;
7410;SDS011;3747;48.628;9.058;2023-05-10T04:23:48;1.03;;;0.80;;
7410;SDS011;3747;48.628;9.058;2023-05-10T04:26:15;1.30;;;1.03;;
7410;SDS011;3747;48.628;9.058;2023-05-10T04:28:41;0.97;;;0.90;;
7410;SDS011;3747;48.628;9.058;2023-05-10T04:31:08;1.30;;;1.20;;
7410;SDS011;3747;48.628;9.058;2023-05-10T04:33:36;1.27;;;1.17;;
7410;SDS011;3747;48.628;9.058;2023-05-10T04:36:05;1.13;;;1.13;;
7410;SDS011;3747;48.628;9.058;2023-05-10T04:38:32;1.40;;;1.30;;
7410;SDS011;3747;48.628;9.058;2023-05-10T04:41:05;3.03;;;1.50;;
7410;SDS011;3747;48.628;9.058;2023-05-10T04:43:32;2.10;;;1.13;;
7410;SDS011;3747;48.628;9.058;2023-05-10T04:45:59;1.20;;;1.10;;
7410;SDS011;3747;48.628;9.058;2023-05-10T04:48:25;2.13;;;1.20;;
7410;SDS011;3747;48.628;9.058;2023-05-10T04:50:52;2.43;;;1.30;;
7410;SDS011;3747;48.628;9.058;2023-05-10T04:53:20;2.07;;;1.30;;
7410;SDS011;3747;48.628;9.058;2023-05-10T04:55:47;5.37;;;1.30;;
7410;SDS011;3747;48.628;9.058;2023-05-10T04:58:14;2.93;;;1.10;;
7410;SDS011;3747;48.628;9.058;2023-05-10T05:00:41;4.63;;;1.30;;
7410;SDS011;3747;48.628;9.058;2023-05-10T05:03:07;1.37;;;1.00;;
7410;SDS011;3747;48.628;9.058;2023-05-10T05:05:34;1.50;;;1.40;;
7410;SDS011;3747;48.628;9.058;2023-05-10T05:08:01;3.80;;;1.40;;
7410;SDS011;3747;48.628;9.058;2023-05-10T05:10:29;1.13;;;1.13;;
7410;SDS011;3747;48.628;9.058;2023-05-10T05:12:56;1.40;;;1.30;;
7410;SDS011;3747;48.628;9.058;2023-05-10T05:15:23;1.10;;;1.10;;
7410;SDS011;3747;48.628;9.058;2023-05-10T05:17:49;1.33;;;1.23;;
7410;SDS011;3747;48.628;9.058;2023-05-10T05:20:16;1.07;;;1.03;;
7410;SDS011;3747;48.628;9.058;2023-05-10T05:22:43;2.67;;;1.30;;
7410;SDS011;3747;48.628;9.058;2023-05-10T05:25:10;2.03;;;1.23;;
7410;SDS011;3747;48.628;9.058;2023-05-10T05:27:39;1.30;;;1.20;;
7410;SDS011;3747;48.628;9.058;2023-05-10T05:30:06;1.20;;;1.10;;
7410;SDS011;3747;48.628;9.058;2023-05-10T05:32:33;2.13;;;1.30;;
7410;SDS011;3747;48.628;9.058;2023-05-10T05:35:00;2.20;;;1.57;;
7410;SDS011;3747;48.628;9.058;2023-05-10T05:37:27;2.97;;;1.27;;
7410;SDS011;3747;48.628;9.058;2023-05-10T05:39:53;1.23;;;1.13;;
7410;SDS011;3747;48.628;9.058;2023-05-10T05:42:20;1.03;;;1.03;;
7410;SDS011;3747;48.628;9.058;2023-05-10T05:44:48;2.57;;;1.73;;
7410;SDS011;3747;48.628;9.058;2023-05-10T05:47:15;2.10;;;1.30;;
7410;SDS011;3747;48.628;9.058;2023-05-10T05:49:42;2.93;;;1.13;;
7410;SDS011;3747;48.628;9.058;2023-05-10T05:52:10;4.10;;;1.47;;
7410;SDS011;3747;48.628;9.058;2023-05-10T05:54:37;3.27;;;1.60;;
7410;SDS011;3747;48.628;9.058;2023-05-10T05:57:04;3.27;;;1.80;;
7410;SDS011;3747;48.628;9.058;2023-05-10T05:59:31;2.03;;;1.33;;
7410;SDS011;3747;48.628;9.058;2023-05-10T06:01:59;1.70;;;1.60;;
7410;SDS011;3747;48.628;9.058;2023-05-10T06:04:25;1.53;;;1.10;;
7410;SDS011;3747;48.628;9.058;2023-05-10T06:06:52;1.73;;;1.10;;
7410;SDS011;3747;48.628;9.058;2023-05-10T06:09:19;1.10;;;1.00;;
7410;SDS011;3747;48.628;9.058;2023-05-10T06:11:45;1.33;;;0.90;;
7410;SDS011;3747;48.628;9.058;2023-05-10T06:14:12;0.80;;;0.80;;
7410;SDS011;3747;48.628;9.058;2023-05-10T06:16:39;0.80;;;0.80;;
7410;SDS011;3747;48.628;9.058;2023-05-10T06:19:07;1.60;;;1.00;;
7410;SDS011;3747;48.628;9.058;2023-05-10T06:21:34;0.87;;;0.87;;
7410;SDS011;3747;48.628;9.058;2023-05-10T06:24:01;0.80;;;0.80;;
7410;SDS011;3747;48.628;9.058;2023-05-10T06:26:27;0.80;;;0.80;;
7410;SDS011;3747;48.628;9.058;2023-05-10T06:28:54;0.60;;;0.60;;
7410;SDS011;3747;48.628;9.058;2023-05-10T06:31:21;1.00;;;1.00;;
7410;SDS011;3747;48.628;9.058;2023-05-10T06:33:47;0.80;;;0.80;;
7410;SDS011;3747;48.628;9.058;2023-05-10T06:36:16;1.13;;;0.87;;
7410;SDS011;3747;48.628;9.058;2023-05-10T06:38:42;1.10;;;1.00;;
7410;SDS011;3747;48.628;9.058;2023-05-10T06:41:09;1.13;;;0.77;;
7410;SDS011;3747;48.628;9.058;2023-05-10T06:43:36;1.33;;;0.80;;
7410;SDS011;3747;48.628;9.058;2023-05-10T06:46:04;1.50;;;0.63;;
7410;SDS011;3747;48.628;9.058;2023-05-10T06:48:34;2.00;;;0.77;;
7410;SDS011;3747;48.628;9.058;2023-05-10T06:51:01;1.17;;;1.00;;
7410;SDS011;3747;48.628;9.058;2023-05-10T06:53:29;1.33;;;1.00;;
7410;SDS011;3747;48.628;9.058;2023-05-10T06:55:56;6.20;;;5.20;;
7410;SDS011;3747;48.628;9.058;2023-05-10T06:58:22;1.47;;;1.00;;
7410;SDS011;3747;48.628;9.058;2023-05-10T07:00:49;1.23;;;0.90;;
7410;SDS011;3747;48.628;9.058;2023-05-10T07:03:16;2.00;;;1.43;;
7410;SDS011;3747;48.628;9.058;2023-05-10T07:05:43;2.10;;;1.00;;
7410;SDS011;3747;48.628;9.058;2023-05-10T07:08:09;2.27;;;1.00;;
7410;SDS011;3747;48.628;9.058;2023-05-10T07:10:37;3.33;;;0.90;;
7410;SDS011;3747;48.628;9.058;2023-05-10T07:13:04;2.13;;;0.80;;
7410;SDS011;3747;48.628;9.058;2023-05-10T07:15:31;0.40;;;0.40;;
7410;SDS011;3747;48.628;9.058;2023-05-10T07:17:58;0.60;;;0.50;;
7410;SDS011;3747;48.628;9.058;2023-05-10T07:20:25;1.90;;;0.97;;
7410;SDS011;3747;48.628;9.058;2023-05-10T07:22:51;0.70;;;0.70;;
7410;SDS011;3747;48.628;9.058;2023-05-10T07:25:18;1.60;;;0.70;;
7410;SDS011;3747;48.628;9.058;2023-05-10T07:27:46;1.10;;;0.60;;
7410;SDS011;3747;48.628;9.058;2023-05-10T07:30:14;1.17;;;0.70;;
7410;SDS011;3747;48.628;9.058;2023-05-10T07:32:41;0.33;;;0.33;;
7410;SDS011;3747;48.628;9.058;2023-05-10T07:35:08;0.77;;;0.53;;
7410;SDS011;3747;48.628;9.058;2023-05-10T07:37:35;0.60;;;0.43;;
7410;SDS011;3747;48.628;9.058;2023-05-10T07:40:01;0.50;;;0.47;;
7410;SDS011;3747;48.628;9.058;2023-05-10T07:42:28;1.03;;;0.67;;
7410;SDS011;3747;48.628;9.058;2023-05-10T07:44:56;0.80;;;0.60;;
7410;SDS011;3747;48.628;9.058;2023-05-10T07:47:23;0.53;;;0.33;;
7410;SDS011;3747;48.628;9.058;2023-05-10T07:49:50;2.03;;;0.60;;
7410;SDS011;3747;48.628;9.058;2023-05-10T07:52:16;0.40;;;0.40;;
7410;SDS011;3747;48.628;9.058;2023-05-10T07:54:43;1.40;;;0.30;;
7410;SDS011;3747;48.628;9.058;2023-05-10T07:57:10;0.43;;;0.30;;
7410;SDS011;3747;48.628;9.058;2023-05-10T07:59:39;0.50;;;0.50;;
7410;SDS011;3747;48.628;9.058;2023-05-10T08:02:07;0.67;;;0.43;;
7410;SDS011;3747;48.628;9.058;2023-05-10T08:04:34;1.27;;;0.60;;
7410;SDS011;3747;48.628;9.058;2023-05-10T08:07:01;0.40;;;0.40;;
7410;SDS011;3747;48.628;9.058;2023-05-10T08:09:27;0.40;;;0.40;;
7410;SDS011;3747;48.628;9.058;2023-05-10T08:11:54;1.83;;;0.60;;
7410;SDS011;3747;48.628;9.058;2023-05-10T08:14:21;1.90;;;0.53;;
7410;SDS011;3747;48.628;9.058;2023-05-10T08:16:48;1.43;;;0.40;;
7410;SDS011;3747;48.628;9.058;2023-05-10T08:19:15;1.63;;;0.53;;
7410;SDS011;3747;48.628;9.058;2023-05-10T08:21:44;0.70;;;0.50;;
7410;SDS011;3747;48.628;9.058;2023-05-10T08:24:11;1.77;;;0.57;;
7410;SDS011;3747;48.628;9.058;2023-05-10T08:26:38;0.27;;;0.27;;
7410;SDS011;3747;48.628;9.058;2023-05-10T08:29:04;1.37;;;0.40;;
7410;SDS011;3747;48.628;9.058;2023-05-10T08:31:31;1.10;;;0.20;;
7410;SDS011;3747;48.628;9.058;2023-05-10T08:33:58;0.27;;;0.27;;
7410;SDS011;3747;48.628;9.058;2023-05-10T08:36:26;0.60;;;0.40;;
7410;SDS011;3747;48.628;9.058;2023-05-10T08:38:53;0.50;;;0.50;;
7410;SDS011;3747;48.628;9.058;2023-05-10T08:41:20;0.83;;;0.30;;
7410;SDS011;3747;48.628;9.058;2023-05-10T08:43:49;0.90;;;0.20;;
7410;SDS011;3747;48.628;9.058;2023-05-10T08:46:17;0.40;;;0.27;;
7410;SDS011;3747;48.628;9.058;2023-05-10T08:48:44;0.50;;;0.30;;
7410;SDS011;3747;48.628;9.058;2023-05-10T08:51:12;0.40;;;0.40;;
7410;SDS011;3747;48.628;9.058;2023-05-10T08:53:41;0.30;;;0.30;;
7410;SDS011;3747;48.628;9.058;2023-05-10T08:56:08;2.13;;;0.20;;
7410;SDS011;3747;48.628;9.058;2023-05-10T08:58:35;1.40;;;0.30;;
7410;SDS011;3747;48.628;9.058;2023-05-10T09:01:03;0.30;;;0.30;;
7410;SDS011;3747;48.628;9.058;2023-05-10T09:03:30;0.30;;;0.20;;
7410;SDS011;3747;48.628;9.058;2023-05-10T09:05:57;0.20;;;0.20;;
7410;SDS011;3747;48.628;9.058;2023-05-10T09:08:25;0.50;;;0.20;;
7410;SDS011;3747;48.628;9.058;2023-05-10T09:10:53;0.20;;;0.20;;
7410;SDS011;3747;48.628;9.058;2023-05-10T09:13:21;0.13;;;0.10;;
7410;SDS011;3747;48.628;9.058;2023-05-10T09:15:49;0.27;;;0.27;;
7410;SDS011;3747;48.628;9.058;2023-05-10T09:18:16;0.47;;;0.20;;
7410;SDS011;3747;48.628;9.058;2023-05-10T09:20:43;0.27;;;0.13;;
7410;SDS011;3747;48.628;9.058;2023-05-10T09:23:09;0.10;;;0.10;;
7410;SDS011;3747;48.628;9.058;2023-05-10T09:25:36;0.20;;;0.20;;
7410;SDS011;3747;48.628;9.058;2023-05-10T09:28:06;1.40;;;0.20;;
7410;SDS011;3747;48.628;9.058;2023-05-10T09:30:34;0.10;;;0.10;;
7410;SDS011;3747;48.628;9.058;2023-05-10T09:33:01;0.33;;;0.23;;
7410;SDS011;3747;48.628;9.058;2023-05-10T09:35:29;0.63;;;0.30;;
7410;SDS011;3747;48.628;9.058;2023-05-10T09:38:00;0.20;;;0.20;;
7410;SDS011;3747;48.628;9.058;2023-05-10T09:40:28;1.27;;;0.57;;
7410;SDS011;3747;48.628;9.058;2023-05-10T09:42:57;0.10;;;0.10;;
7410;SDS011;3747;48.628;9.058;2023-05-10T09:45:26;0.93;;;0.30;;
7410;SDS011;3747;48.628;9.058;2023-05-10T09:47:54;0.53;;;0.10;;
7410;SDS011;3747;48.628;9.058;2023-05-10T09:50:21;0.20;;;0.20;;
7410;SDS011;3747;48.628;9.058;2023-05-10T09:52:49;0.93;;;0.20;;
7410;SDS011;3747;48.628;9.058;2023-05-10T09:55:17;0.20;;;0.20;;
7410;SDS011;3747;48.628;9.058;2023-05-10T09:57:45;0.53;;;0.20;;
7410;SDS011;3747;48.628;9.058;2023-05-10T10:00:16;0.33;;;0.20;;
7410;SDS011;3747;48.628;9.058;2023-05-10T10:02:46;0.40;;;0.10;;
7410;SDS011;3747;48.628;9.058;2023-05-10T10:05:14;0.10;;;0.10;;
7410;SDS011;3747;48.628;9.058;2023-05-10T10:07:41;0.20;;;0.20;;
7410;SDS011;3747;48.628;9.058;2023-05-10T10:10:08;0.30;;;0.30;;
7410;SDS011;3747;48.628;9.058;2023-05-10T10:12:37;0.20;;;0.20;;
7410;SDS011;3747;48.628;9.058;2023-05-10T10:15:05;0.97;;;0.20;;
7410;SDS011;3747;48.628;9.058;2023-05-10T10:17:33;0.27;;;0.20;;
7410;SDS011;3747;48.628;9.058;2023-05-10T10:20:04;0.30;;;0.20;;
7410;SDS011;3747;48.628;9.058;2023-05-10T10:22:33;0.43;;;0.20;;
7410;SDS011;3747;48.628;9.058;2023-05-10T10:24:59;0.33;;;0.23;;
7410;SDS011;3747;48.628;9.058;2023-05-10T10:27:28;0.20;;;0.20;;
7410;SDS011;3747;48.628;9.058;2023-05-10T10:30:07;0.60;;;0.20;;
7410;SDS011;3747;48.628;9.058;2023-05-10T10:32:45;0.20;;;0.20;;
7410;SDS011;3747;48.628;9.058;2023-05-10T10:35:28;0.20;;;0.20;;
7410;SDS011;3747;48.628;9.058;2023-05-10T10:37:56;0.50;;;0.30;;
7410;SDS011;3747;48.628;9.058;2023-05-10T10:40:24;0.23;;;0.20;;
7410;SDS011;3747;48.628;9.058;2023-05-10T10:42:52;1.07;;;0.30;;
7410;SDS011;3747;48.628;9.058;2023-05-10T10:45:20;0.23;;;0.23;;
7410;SDS011;3747;48.628;9.058;2023-05-10T10:47:48;0.67;;;0.30;;
7410;SDS011;3747;48.628;9.058;2023-05-10T10:50:16;4.63;;;0.40;;
7410;SDS011;3747;48.628;9.058;2023-05-10T10:52:44;0.20;;;0.20;;
7410;SDS011;3747;48.628;9.058;2023-05-10T10:55:14;0.33;;;0.30;;
7410;SDS011;3747;48.628;9.058;2023-05-10T10:57:47;1.40;;;0.40;;
7410;SDS011;3747;48.628;9.058;2023-05-10T11:00:22;4.27;;;1.73;;
7410;SDS011;3747;48.628;9.058;2023-05-10T11:02:51;0.20;;;0.20;;
7410;SDS011;3747;48.628;9.058;2023-05-10T11:05:33;1.83;;;0.37;;
7410;SDS011;3747;48.628;9.058;2023-05-10T11:08:13;0.50;;;0.50;;
7410;SDS011;3747;48.628;9.058;2023-05-10T11:10:52;1.57;;;0.50;;
7410;SDS011;3747;48.628;9.058;2023-05-10T11:13:28;0.30;;;0.30;;
7410;SDS011;3747;48.628;9.058;2023-05-10T11:15:56;3.67;;;0.47;;
7410;SDS011;3747;48.628;9.058;2023-05-10T11:18:24;0.93;;;0.40;;
7410;SDS011;3747;48.628;9.058;2023-05-10T11:20:52;1.07;;;0.30;;
7410;SDS011;3747;48.628;9.058;2023-05-10T11:23:23;0.83;;;0.40;;
7410;SDS011;3747;48.628;9.058;2023-05-10T11:25:49;1.00;;;0.37;;
7410;SDS011;3747;48.628;9.058;2023-05-10T11:28:17;1.33;;;0.40;;
7410;SDS011;3747;48.628;9.058;2023-05-10T11:30:44;1.27;;;0.50;;
7410;SDS011;3747;48.628;9.058;2023-05-10T11:33:14;0.63;;;0.40;;
7410;SDS011;3747;48.628;9.058;2023-05-10T11:35:42;1.77;;;0.50;;
7410;SDS011;3747;48.628;9.058;2023-05-10T11:38:10;1.10;;;0.40;;
7410;SDS011;3747;48.628;9.058;2023-05-10T11:40:39;0.40;;;0.30;;
7410;SDS011;3747;48.628;9.058;2023-05-10T11:43:06;2.90;;;0.40;;
7410;SDS011;3747;48.628;9.058;2023-05-10T11:45:35;0.43;;;0.43;;
7410;SDS011;3747;48.628;9.058;2023-05-10T11:48:02;1.60;;;0.37;;
7410;SDS011;3747;48.628;9.058;2023-05-10T11:50:29;6.40;;;0.67;;
7410;SDS011;3747;48.628;9.058;2023-05-10T11:52:56;1.07;;;0.40;;
7410;SDS011;3747;48.628;9.058;2023-05-10T11:55:23;0.90;;;0.40;;
7410;SDS011;3747;48.628;9.058;2023-05-10T11:57:52;3.30;;;0.60;;
7410;SDS011;3747;48.628;9.058;2023-05-10T12:00:19;0.40;;;0.40;;
7410;SDS011;3747;48.628;9.058;2023-05-10T12:02:46;0.67;;;0.50;;
7410;SDS011;3747;48.628;9.058;2023-05-10T12:05:14;1.17;;;0.47;;
7410;SDS011;3747;48.628;9.058;2023-05-10T12:07:40;1.30;;;0.50;;
7410;SDS011;3747;48.628;9.058;2023-05-10T12:10:08;0.73;;;0.30;;
7410;SDS011;3747;48.628;9.058;2023-05-10T12:12:36;2.67;;;0.60;;
7410;SDS011;3747;48.628;9.058;2023-05-10T12:15:06;1.83;;;0.40;;
7410;SDS011;3747;48.628;9.058;2023-05-10T12:17:37;1.00;;;0.43;;
7410;SDS011;3747;48.628;9.058;2023-05-10T12:20:14;1.27;;;0.50;;
7410;SDS011;3747;48.628;9.058;2023-05-10T12:22:46;1.43;;;0.50;;
7410;SDS011;3747;48.628;9.058;2023-05-10T12:25:13;1.83;;;0.60;;
7410;SDS011;3747;48.628;9.058;2023-05-10T12:27:40;0.93;;;0.50;;
7410;SDS011;3747;48.628;9.058;2023-05-10T12:30:17;1.60;;;0.50;;
7410;SDS011;3747;48.628;9.058;2023-05-10T12:32:45;1.03;;;0.50;;
7410;SDS011;3747;48.628;9.058;2023-05-10T12:35:12;1.53;;;0.43;;
7410;SDS011;3747;48.628;9.058;2023-05-10T12:37:40;1.10;;;0.47;;
7410;SDS011;3747;48.628;9.058;2023-05-10T12:40:08;0.30;;;0.30;;
7410;SDS011;3747;48.628;9.058;2023-05-10T12:42:36;1.23;;;0.40;;
7410;SDS011;3747;48.628;9.058;2023-05-10T12:45:03;2.27;;;0.53;;
7410;SDS011;3747;48.628;9.058;2023-05-10T12:47:33;1.27;;;0.40;;
7410;SDS011;3747;48.628;9.058;2023-05-10T12:50:00;0.83;;;0.40;;
7410;SDS011;3747;48.628;9.058;2023-05-10T12:52:28;0.70;;;0.70;;
7410;SDS011;3747;48.628;9.058;2023-05-10T12:54:56;1.40;;;0.50;;
7410;SDS011;3747;48.628;9.058;2023-05-10T12:57:23;1.13;;;0.40;;
7410;SDS011;3747;48.628;9.058;2023-05-10T12:59:50;1.77;;;0.63;;
7410;SDS011;3747;48.628;9.058;2023-05-10T13:02:17;0.60;;;0.60;;
7410;SDS011;3747;48.628;9.058;2023-05-10T13:04:46;2.47;;;0.70;;
7410;SDS011;3747;48.628;9.058;2023-05-10T13:07:13;1.23;;;0.40;;
7410;SDS011;3747;48.628;9.058;2023-05-10T13:09:40;1.10;;;0.50;;
7410;SDS011;3747;48.628;9.058;2023-05-10T13:12:06;1.03;;;0.40;;
7410;SDS011;3747;48.628;9.058;2023-05-10T13:14:33;1.27;;;0.60;;
7410;SDS011;3747;48.628;9.058;2023-05-10T13:17:00;4.50;;;0.53;;
7410;SDS011;3747;48.628;9.058;2023-05-10T13:19:26;0.30;;;0.30;;
7410;SDS011;3747;48.628;9.058;2023-05-10T13:21:54;2.27;;;0.60;;
7410;SDS011;3747;48.628;9.058;2023-05-10T13:24:21;2.13;;;0.50;;
7410;SDS011;3747;48.628;9.058;2023-05-10T13:26:48;1.30;;;0.50;;
7410;SDS011;3747;48.628;9.058;2023-05-10T13:29:14;1.37;;;0.40;;
7410;SDS011;3747;48.628;9.058;2023-05-10T13:31:42;1.40;;;0.40;;
7410;SDS011;3747;48.628;9.058;2023-05-10T13:34:09;1.37;;;0.60;;
7410;SDS011;3747;48.628;9.058;2023-05-10T13:36:36;1.03;;;0.63;;
7410;SDS011;3747;48.628;9.058;2023-05-10T13:39:05;1.77;;;0.67;;
7410;SDS011;3747;48.628;9.058;2023-05-10T13:41:32;0.60;;;0.40;;
7410;SDS011;3747;48.628;9.058;2023-05-10T13:43:59;1.00;;;0.40;;
7410;SDS011;3747;48.628;9.058;2023-05-10T13:46:25;0.63;;;0.40;;
7410;SDS011;3747;48.628;9.058;2023-05-10T13:48:52;1.83;;;0.80;;
7410;SDS011;3747;48.628;9.058;2023-05-10T13:51:19;2.10;;;0.50;;
7410;SDS011;3747;48.628;9.058;2023-05-10T13:53:46;1.60;;;0.50;;
7410;SDS011;3747;48.628;9.058;2023-05-10T13:56:14;0.60;;;0.50;;
7410;SDS011;3747;48.628;9.058;2023-05-10T13:58:41;0.60;;;0.40;;
7410;SDS011;3747;48.628;9.058;2023-05-10T14:01:07;3.30;;;0.50;;
7410;SDS011;3747;48.628;9.058;2023-05-10T14:03:35;0.73;;;0.30;;
7410;SDS011;3747;48.628;9.058;2023-05-10T14:06:02;1.10;;;0.53;;
7410;SDS011;3747;48.628;9.058;2023-05-10T14:08:29;3.10;;;0.70;;
7410;SDS011;3747;48.628;9.058;2023-05-10T14:10:55;0.87;;;0.53;;
7410;SDS011;3747;48.628;9.058;2023-05-10T14:13:24;1.80;;;0.60;;
7410;SDS011;3747;48.628;9.058;2023-05-10T14:15:52;1.40;;;0.40;;
7410;SDS011;3747;48.628;9.058;2023-05-10T14:18:19;2.73;;;0.50;;
7410;SDS011;3747;48.628;9.058;2023-05-10T14:20:46;1.33;;;0.77;;
7410;SDS011;3747;48.628;9.058;2023-05-10T14:23:13;1.63;;;0.50;;
7410;SDS011;3747;48.628;9.058;2023-05-10T14:25:39;1.80;;;0.67;;
7410;SDS011;3747;48.628;9.058;2023-05-10T14:28:06;1.53;;;0.50;;
7410;SDS011;3747;48.628;9.058;2023-05-10T14:30:35;1.63;;;0.60;;
7410;SDS011;3747;48.628;9.058;2023-05-10T14:33:02;1.17;;;0.90;;
7410;SDS011;3747;48.628;9.058;2023-05-10T14:35:28;2.57;;;0.40;;
7410;SDS011;3747;48.628;9.058;2023-05-10T14:37:56;1.60;;;0.40;;
7410;SDS011;3747;48.628;9.058;2023-05-10T14:40:23;0.47;;;0.47;;
7410;SDS011;3747;48.628;9.058;2023-05-10T14:42:51;1.60;;;0.30;;
7410;SDS011;3747;48.628;9.058;2023-05-10T14:45:18;1.53;;;0.50;;
7410;SDS011;3747;48.628;9.058;2023-05-10T14:47:46;1.27;;;0.40;;
7410;SDS011;3747;48.628;9.058;2023-05-10T14:50:13;1.30;;;0.40;;
7410;SDS011;3747;48.628;9.058;2023-05-10T14:52:40;0.60;;;0.40;;
7410;SDS011;3747;48.628;9.058;2023-05-10T14:55:07;0.50;;;0.30;;
7410;SDS011;3747;48.628;9.058;2023-05-10T14:57:34;0.77;;;0.40;;
7410;SDS011;3747;48.628;9.058;2023-05-10T15:00:01;1.57;;;0.40;;
7410;SDS011;3747;48.628;9.058;2023-05-10T15:02:28;2.17;;;0.50;;
7410;SDS011;3747;48.628;9.058;2023-05-10T15:04:56;0.93;;;0.43;;
7410;SDS011;3747;48.628;9.058;2023-05-10T15:07:23;0.97;;;0.73;;
7410;SDS011;3747;48.628;9.058;2023-05-10T15:09:50;0.70;;;0.47;;
7410;SDS011;3747;48.628;9.058;2023-05-10T15:12:17;7.47;;;0.60;;
7410;SDS011;3747;48.628;9.058;2023-05-10T15:14:44;1.00;;;0.30;;
7410;SDS011;3747;48.628;9.058;2023-05-10T15:17:11;0.50;;;0.30;;
7410;SDS011;3747;48.628;9.058;2023-05-10T15:19:37;0.97;;;0.40;;
7410;SDS011;3747;48.628;9.058;2023-05-10T15:22:05;0.30;;;0.30;;